createdAt,value
2022-10-17T00:03:50.681Z,12.69
2022-10-17T00:08:54.267Z,12.75
2022-10-17T00:13:57.936Z,12.80
2022-10-17T00:19:01.607Z,12.58
2022-10-17T00:24:06.067Z,12.38
2022-10-17T00:29:09.552Z,12.21
2022-10-17T00:34:12.878Z,12.18
2022-10-17T00:39:16.290Z,12.14
2022-10-17T00:44:31.689Z,12.15
2022-10-17T00:49:38.886Z,12.08
2022-10-17T00:54:49.263Z,12.05
2022-10-17T00:59:57.600Z,11.87
2022-10-17T01:13:34.448Z,11.73
2022-10-17T01:18:57.746Z,11.66
2022-10-17T01:24:54.415Z,11.73
2022-10-17T01:30:29.849Z,11.70
2022-10-17T01:35:52.617Z,11.59
2022-10-17T01:41:14.780Z,11.52
2022-10-17T01:46:36.414Z,11.46
2022-10-17T01:52:11.472Z,11.39
2022-10-17T01:57:36.254Z,11.40
2022-10-17T02:02:41.114Z,11.37
2022-10-17T02:07:44.443Z,11.32
2022-10-17T02:13:09.442Z,11.25
2022-10-17T02:18:49.846Z,11.13
2022-10-17T02:24:25.900Z,11.07
2022-10-17T02:29:38.657Z,11.06
2022-10-17T02:34:48.622Z,11.00
2022-10-17T02:39:53.981Z,10.94
2022-10-17T02:45:01.791Z,10.93
2022-10-17T02:50:07.026Z,10.96
2022-10-17T02:55:19.893Z,10.98
2022-10-17T03:00:26.187Z,10.97
2022-10-17T03:05:30.413Z,10.94
2022-10-17T03:10:33.692Z,10.87
2022-10-17T03:15:37.094Z,10.78
2022-10-17T03:20:40.546Z,10.69
2022-10-17T03:25:43.862Z,10.63
2022-10-17T03:30:47.153Z,10.65
2022-10-17T03:40:58.815Z,10.64
2022-10-17T03:46:02.735Z,10.51
2022-10-17T03:51:09.842Z,10.44
2022-10-17T03:56:19.921Z,10.35
2022-10-17T04:01:24.457Z,10.29
2022-10-17T04:06:27.757Z,10.20
2022-10-17T04:11:31.096Z,10.17
2022-10-17T04:16:34.583Z,10.13
2022-10-17T04:21:38.220Z,10.12
2022-10-17T04:26:41.521Z,10.09
2022-10-17T04:31:45.038Z,10.11
2022-10-17T04:36:48.649Z,10.02
2022-10-17T04:41:51.934Z,9.92
2022-10-17T04:46:55.203Z,9.84
2022-10-17T04:51:58.483Z,9.75
2022-10-17T04:57:01.809Z,9.72
2022-10-17T05:02:05.175Z,9.74
2022-10-17T05:07:08.725Z,9.81
2022-10-17T05:12:12.280Z,9.90
2022-10-17T05:17:15.939Z,10.01
2022-10-17T05:22:19.182Z,10.05
2022-10-17T05:27:22.417Z,10.05
2022-10-17T05:32:25.717Z,9.99
2022-10-17T05:37:31.123Z,10.00
2022-10-17T05:50:46.482Z,10.08
2022-10-17T05:56:00.971Z,10.22
2022-10-17T06:01:09.415Z,10.32
2022-10-17T06:06:16.821Z,10.39
2022-10-17T06:11:20.440Z,10.45
2022-10-17T06:16:25.647Z,10.43
2022-10-17T06:21:31.741Z,10.43
2022-10-17T06:26:36.247Z,10.45
2022-10-17T06:31:39.752Z,10.42
2022-10-17T06:36:43.604Z,10.52
2022-10-17T06:41:46.958Z,10.87
2022-10-17T06:46:50.369Z,11.20
2022-10-17T06:51:54.219Z,11.38
2022-10-17T06:56:57.546Z,11.43
2022-10-17T07:02:05.629Z,11.66
2022-10-17T07:07:08.839Z,11.89
2022-10-17T07:12:13.078Z,11.95
2022-10-17T07:17:18.230Z,12.02
2022-10-17T07:22:21.646Z,12.21
2022-10-17T07:27:24.938Z,12.45
2022-10-17T07:32:28.266Z,12.71
2022-10-17T07:37:31.992Z,12.98
2022-10-17T07:47:43.736Z,13.37
2022-10-17T07:52:47.042Z,13.29
2022-10-17T07:57:50.355Z,13.43
2022-10-17T08:02:53.633Z,13.71
2022-10-17T08:07:56.945Z,13.80
2022-10-17T08:13:00.394Z,13.88
2022-10-17T08:18:03.742Z,14.12
2022-10-17T08:23:07.220Z,14.31
2022-10-17T08:28:10.476Z,14.46
2022-10-17T08:33:14.070Z,14.68
2022-10-17T08:38:20.925Z,14.85
2022-10-17T08:43:59.589Z,15.04
2022-10-17T08:49:13.441Z,14.87
2022-10-17T08:54:39.792Z,14.72
2022-10-17T08:59:46.106Z,14.91
2022-10-17T09:05:26.894Z,15.29
2022-10-17T09:10:50.870Z,15.66
2022-10-17T09:16:16.799Z,16.04
2022-10-17T09:21:32.609Z,16.03
2022-10-17T09:26:36.184Z,16.05
2022-10-17T09:32:19.879Z,16.30
2022-10-17T09:37:33.330Z,16.50
2022-10-17T09:42:37.735Z,16.58
2022-10-17T09:48:19.280Z,16.81
2022-10-17T09:53:38.260Z,16.92
2022-10-17T09:58:55.801Z,17.22
2022-10-17T10:04:10.167Z,17.61
2022-10-17T10:09:27.438Z,17.85
2022-10-17T10:14:39.897Z,17.97
2022-10-17T10:19:51.348Z,18.17
2022-10-17T10:25:18.002Z,18.44
2022-10-17T10:30:36.116Z,18.65
2022-10-17T10:35:42.585Z,18.81
2022-10-17T10:40:57.094Z,18.93
2022-10-17T10:46:01.701Z,19.03
2022-10-17T10:51:14.900Z,19.14
2022-10-17T10:56:25.786Z,19.20
2022-10-17T11:01:37.799Z,19.33
2022-10-17T11:06:45.298Z,19.49
2022-10-17T11:12:13.681Z,19.58
2022-10-17T11:17:36.890Z,19.62
2022-10-17T11:22:47.470Z,19.64
2022-10-17T11:27:50.985Z,19.75
2022-10-17T11:33:00.959Z,19.94
2022-10-17T11:38:45.314Z,19.99
2022-10-17T11:43:56.809Z,20.02
2022-10-17T11:49:20.609Z,20.01
2022-10-17T11:54:44.415Z,20.06
2022-10-17T12:00:37.972Z,20.18
2022-10-17T12:05:59.403Z,20.23
2022-10-17T12:11:16.519Z,20.27
2022-10-17T12:16:22.552Z,20.35
2022-10-17T12:21:29.730Z,20.40
2022-10-17T12:26:34.701Z,20.46
2022-10-17T12:31:38.218Z,20.47
2022-10-17T12:36:42.446Z,20.49
2022-10-17T12:41:46.788Z,20.73
2022-10-17T12:46:52.154Z,20.99
2022-10-17T12:52:23.623Z,21.11
2022-10-17T12:57:54.851Z,21.08
2022-10-17T13:03:16.644Z,20.88
2022-10-17T13:08:37.456Z,20.86
2022-10-17T13:13:52.440Z,20.90
2022-10-17T13:18:56.801Z,20.85
2022-10-17T13:24:01.400Z,20.77
2022-10-17T13:29:14.966Z,20.65
2022-10-17T13:34:25.380Z,20.48
2022-10-17T13:39:58.158Z,20.35
2022-10-17T13:45:05.095Z,20.30
2022-10-17T13:50:39.429Z,20.26
2022-10-17T13:55:38.289Z,20.18
2022-10-17T14:00:42.145Z,20.10
2022-10-17T14:06:11.569Z,20.08
2022-10-17T14:11:30.002Z,20.12
2022-10-17T14:16:42.635Z,20.16
2022-10-17T14:21:49.854Z,20.19
2022-10-17T14:27:00.969Z,20.16
2022-10-17T14:32:13.353Z,20.07
2022-10-17T14:37:57.439Z,19.90
2022-10-17T14:43:06.264Z,19.72
2022-10-17T14:48:19.923Z,19.56
2022-10-17T14:53:23.242Z,19.44
2022-10-17T14:58:33.175Z,19.34
2022-10-17T15:03:36.573Z,19.26
2022-10-17T15:08:40.077Z,19.19
2022-10-17T15:13:45.714Z,19.10
2022-10-17T15:18:50.233Z,19.03
2022-10-17T15:23:53.545Z,18.97
2022-10-17T15:28:56.834Z,18.85
2022-10-17T15:34:00.157Z,18.65
2022-10-17T15:39:03.790Z,18.38
2022-10-17T15:44:07.289Z,18.14
2022-10-17T15:49:17.474Z,17.96
2022-10-17T15:54:20.793Z,17.83
2022-10-17T15:59:32.696Z,17.75
2022-10-17T16:04:36.112Z,17.68
2022-10-17T16:09:39.898Z,17.66
2022-10-17T16:14:43.367Z,17.65
2022-10-17T16:19:46.870Z,17.62
2022-10-17T16:24:50.202Z,17.57
2022-10-17T16:29:53.722Z,17.46
2022-10-17T16:34:57.515Z,17.34
2022-10-17T16:40:00.883Z,17.20
2022-10-17T16:45:05.536Z,17.11
2022-10-17T16:50:10.022Z,17.07
2022-10-17T16:55:13.642Z,17.07
2022-10-17T17:00:18.290Z,17.07
2022-10-17T17:05:21.638Z,17.13
2022-10-17T17:10:24.979Z,17.21
2022-10-17T17:15:28.415Z,17.26
2022-10-17T17:20:33.881Z,17.32
2022-10-17T17:25:39.741Z,17.42
2022-10-17T17:30:43.162Z,17.40
2022-10-17T17:35:46.466Z,17.38
2022-10-17T17:40:51.365Z,17.44
2022-10-17T17:45:54.947Z,17.52
2022-10-17T17:51:02.867Z,17.64
2022-10-17T17:56:16.714Z,17.71
2022-10-17T18:01:23.789Z,17.79
2022-10-17T18:06:28.949Z,17.84
2022-10-17T18:11:32.902Z,17.84
2022-10-17T18:16:37.955Z,17.84
2022-10-17T18:21:41.366Z,17.82
2022-10-17T18:26:44.612Z,17.85
2022-10-17T18:31:47.993Z,17.86
2022-10-17T18:36:53.105Z,17.82
2022-10-17T18:41:57.139Z,17.77
2022-10-17T18:47:03.847Z,17.74
2022-10-17T18:52:07.902Z,17.68
2022-10-17T18:57:11.611Z,17.64
2022-10-17T19:02:14.978Z,17.57
2022-10-17T19:07:20.306Z,17.49
2022-10-17T19:12:23.692Z,17.45
2022-10-17T19:17:27.187Z,17.43
2022-10-17T19:22:31.547Z,17.42
2022-10-17T19:27:34.959Z,17.42
2022-10-17T19:32:38.996Z,17.41
2022-10-17T19:37:42.405Z,17.39
2022-10-17T19:42:45.712Z,17.33
2022-10-17T19:47:49.125Z,17.29
2022-10-17T19:52:52.436Z,17.28
2022-10-17T19:57:56.158Z,17.29
2022-10-17T20:02:59.454Z,17.34
2022-10-17T20:08:03.156Z,17.38
2022-10-17T20:13:06.607Z,17.34
2022-10-17T20:18:10.525Z,17.32
2022-10-17T20:23:13.843Z,17.31
2022-10-17T20:28:17.266Z,17.27
2022-10-17T20:33:21.337Z,17.25
2022-10-17T20:38:25.009Z,17.20
2022-10-17T20:43:28.422Z,17.18
2022-10-17T20:48:31.930Z,17.15
2022-10-17T20:53:37.517Z,17.14
2022-10-17T20:58:41.425Z,17.10
2022-10-17T21:03:46.575Z,17.08
2022-10-17T21:08:54.457Z,17.05
2022-10-17T21:14:04.914Z,17.02
2022-10-17T21:19:10.980Z,16.98
2022-10-17T21:24:21.060Z,16.90
2022-10-17T21:29:24.958Z,16.84
2022-10-17T21:34:29.047Z,16.81
2022-10-17T21:39:32.848Z,16.78
2022-10-17T21:44:36.519Z,16.73
2022-10-17T21:49:40.087Z,16.70
2022-10-17T21:54:43.773Z,16.63
2022-10-17T21:59:47.076Z,16.59
2022-10-17T22:04:50.386Z,16.54
2022-10-17T22:09:53.904Z,16.50
2022-10-17T22:14:57.209Z,16.45
2022-10-17T22:20:00.756Z,16.41
2022-10-17T22:25:04.985Z,16.38
2022-10-17T22:30:09.833Z,16.32
2022-10-17T22:35:13.789Z,16.31
2022-10-17T22:40:17.279Z,16.29
2022-10-17T22:45:20.667Z,16.24
2022-10-17T22:50:24.901Z,16.17
2022-10-17T22:55:28.412Z,16.13
2022-10-17T23:00:31.826Z,16.11
2022-10-17T23:05:35.244Z,16.09
2022-10-17T23:10:38.998Z,16.06
2022-10-17T23:15:42.952Z,16.02
2022-10-17T23:20:46.713Z,15.99
2022-10-17T23:25:51.639Z,15.96
2022-10-17T23:30:54.972Z,15.91
2022-10-17T23:35:58.211Z,15.88
2022-10-17T23:41:01.491Z,15.87
2022-10-17T23:46:07.118Z,15.89
2022-10-17T23:51:11.324Z,15.88
2022-10-17T23:56:15.290Z,15.87
